createdAt,value
2019-05-18T00:00:20.496Z,18.80
2019-05-18T00:02:47.915Z,18.37
2019-05-18T00:05:15.438Z,16.03
2019-05-18T00:07:43.026Z,19.07
2019-05-18T00:10:12.385Z,14.17
2019-05-18T00:12:39.826Z,17.20
2019-05-18T00:15:08.327Z,19.53
2019-05-18T00:17:35.786Z,17.50
2019-05-18T00:20:03.504Z,18.53
2019-05-18T00:22:30.952Z,11.67
2019-05-18T00:24:58.376Z,15.03
2019-05-18T00:27:25.833Z,17.97
2019-05-18T00:29:53.302Z,15.57
2019-05-18T00:32:20.730Z,16.43
2019-05-18T00:34:48.537Z,23.90
2019-05-18T00:37:15.924Z,16.00
2019-05-18T00:39:43.418Z,14.97
2019-05-18T00:42:10.921Z,14.43
2019-05-18T00:44:38.401Z,17.47
2019-05-18T00:47:05.807Z,16.80
2019-05-18T00:49:33.430Z,17.97
2019-05-18T00:52:00.870Z,17.97
2019-05-18T00:54:28.280Z,19.03
2019-05-18T00:56:55.728Z,19.67
2019-05-18T00:59:23.509Z,29.70
2019-05-18T01:01:50.946Z,31.47
2019-05-18T01:04:18.422Z,25.43
2019-05-18T01:06:45.806Z,26.20
2019-05-18T01:09:13.262Z,25.07
2019-05-18T01:11:40.714Z,26.20
2019-05-18T01:14:08.077Z,29.20
2019-05-18T01:16:35.583Z,24.97
2019-05-18T01:19:03.159Z,30.40
2019-05-18T01:21:30.546Z,26.07
2019-05-18T01:23:57.971Z,25.27
2019-05-18T01:26:25.946Z,23.57
2019-05-18T01:28:56.308Z,17.20
2019-05-18T01:31:23.773Z,20.90
2019-05-18T01:33:51.120Z,18.93
2019-05-18T01:36:18.554Z,16.57
2019-05-18T01:38:46.032Z,14.87
2019-05-18T01:41:13.524Z,16.43
2019-05-18T01:43:40.975Z,15.53
2019-05-18T01:46:08.437Z,15.80
2019-05-18T01:48:35.907Z,14.53
2019-05-18T01:51:03.387Z,12.00
2019-05-18T01:53:30.831Z,17.30
2019-05-18T01:55:58.324Z,17.80
2019-05-18T01:58:25.823Z,15.77
2019-05-18T02:00:53.477Z,17.33
2019-05-18T02:03:20.938Z,16.53
2019-05-18T02:05:48.338Z,16.63
2019-05-18T02:08:15.792Z,18.77
2019-05-18T02:10:43.246Z,35.33
2019-05-18T02:13:10.680Z,29.33
2019-05-18T02:15:38.065Z,21.93
2019-05-18T02:18:05.494Z,21.53
2019-05-18T02:20:32.946Z,19.53
2019-05-18T02:23:00.339Z,20.33
2019-05-18T02:25:27.822Z,22.97
2019-05-18T02:27:55.257Z,19.77
2019-05-18T02:30:22.815Z,21.73
2019-05-18T02:32:50.218Z,31.70
2019-05-18T02:35:17.751Z,37.87
2019-05-18T02:37:45.244Z,42.23
2019-05-18T02:40:12.883Z,60.07
2019-05-18T02:42:40.352Z,52.20
2019-05-18T02:45:08.188Z,58.77
2019-05-18T02:47:35.648Z,51.13
2019-05-18T02:50:03.235Z,42.47
2019-05-18T02:52:30.680Z,43.07
2019-05-18T02:54:58.166Z,37.67
2019-05-18T02:57:25.584Z,34.43
2019-05-18T02:59:53.047Z,36.10
2019-05-18T03:02:20.621Z,35.30
2019-05-18T03:04:48.073Z,36.03
2019-05-18T03:07:15.481Z,35.27
2019-05-18T03:09:43.060Z,34.33
2019-05-18T03:12:10.524Z,22.67
2019-05-18T03:14:37.946Z,29.90
2019-05-18T03:17:05.405Z,34.23
2019-05-18T03:19:32.846Z,31.67
2019-05-18T03:22:01.186Z,44.57
2019-05-18T03:24:28.955Z,47.43
2019-05-18T03:26:56.461Z,44.67
2019-05-18T03:29:23.922Z,53.67
2019-05-18T03:31:51.350Z,51.73
2019-05-18T03:34:18.756Z,44.50
2019-05-18T03:36:46.249Z,36.97
2019-05-18T03:39:13.694Z,45.30
2019-05-18T03:41:41.074Z,32.67
2019-05-18T03:44:08.539Z,23.70
2019-05-18T03:46:36.124Z,16.37
2019-05-18T03:49:03.497Z,19.73
2019-05-18T03:51:30.973Z,11.73
2019-05-18T03:53:58.414Z,13.43
2019-05-18T03:56:25.798Z,19.77
2019-05-18T03:58:53.258Z,24.27
2019-05-18T04:01:20.745Z,26.30
2019-05-18T04:03:48.382Z,26.70
2019-05-18T04:06:15.760Z,27.67
2019-05-18T04:08:43.237Z,22.83
2019-05-18T04:11:10.767Z,22.43
2019-05-18T04:13:38.201Z,18.47
2019-05-18T04:16:05.652Z,22.87
2019-05-18T04:18:33.127Z,26.23
2019-05-18T04:21:06.122Z,20.43
2019-05-18T04:23:33.472Z,24.17
2019-05-18T04:26:01.041Z,19.77
2019-05-18T04:28:28.521Z,19.30
2019-05-18T04:30:55.973Z,23.50
2019-05-18T04:33:23.405Z,24.53
2019-05-18T04:35:50.875Z,22.83
2019-05-18T04:38:18.290Z,20.00
2019-05-18T04:40:45.748Z,23.97
2019-05-18T04:43:13.205Z,24.97
2019-05-18T04:45:40.730Z,22.43
2019-05-18T04:48:08.100Z,22.27
2019-05-18T04:50:35.555Z,24.33
2019-05-18T04:53:03.074Z,25.77
2019-05-18T04:55:30.463Z,27.37
2019-05-18T04:57:57.907Z,26.37
2019-05-18T05:00:25.329Z,31.87
2019-05-18T05:02:52.803Z,31.57
2019-05-18T05:05:20.351Z,30.20
2019-05-18T05:07:47.817Z,27.23
2019-05-18T05:10:15.191Z,29.80
2019-05-18T05:12:42.647Z,32.87
2019-05-18T05:15:10.314Z,31.97
2019-05-18T05:17:37.668Z,33.33
2019-05-18T05:20:18.730Z,25.53
2019-05-18T05:22:35.093Z,24.83
2019-05-18T05:25:02.789Z,25.13
2019-05-18T05:27:30.308Z,31.03
2019-05-18T05:29:57.723Z,23.83
2019-05-18T05:32:25.189Z,24.43
2019-05-18T05:34:52.654Z,21.63
2019-05-18T05:37:20.060Z,20.67
2019-05-18T05:39:47.602Z,24.10
2019-05-18T05:42:15.104Z,20.57
2019-05-18T05:44:42.534Z,24.67
2019-05-18T05:47:09.969Z,21.20
2019-05-18T05:49:37.508Z,19.93
2019-05-18T05:52:04.981Z,13.63
2019-05-18T05:54:32.477Z,32.97
2019-05-18T05:57:00.944Z,27.37
2019-05-18T05:59:29.561Z,27.90
2019-05-18T06:01:57.032Z,27.90
2019-05-18T06:04:24.397Z,22.67
2019-05-18T06:06:51.977Z,24.40
2019-05-18T06:09:19.407Z,16.37
2019-05-18T06:11:46.771Z,20.20
2019-05-18T06:14:14.239Z,22.37
2019-05-18T06:16:41.694Z,20.50
2019-05-18T06:19:09.173Z,25.07
2019-05-18T06:21:36.691Z,24.50
2019-05-18T06:24:04.170Z,23.23
2019-05-18T06:26:31.593Z,25.70
2019-05-18T06:28:59.026Z,30.27
2019-05-18T06:31:26.457Z,30.33
2019-05-18T06:33:53.895Z,27.17
2019-05-18T06:36:21.293Z,28.77
2019-05-18T06:38:49.444Z,31.50
2019-05-18T06:41:16.913Z,24.80
2019-05-18T06:43:44.367Z,23.40
2019-05-18T06:46:11.854Z,24.97
2019-05-18T06:48:39.278Z,24.83
2019-05-18T06:51:07.786Z,24.10
2019-05-18T06:53:35.385Z,27.17
2019-05-18T06:56:03.649Z,24.30
2019-05-18T06:58:31.771Z,24.67
2019-05-18T07:00:59.293Z,26.07
2019-05-18T07:03:26.757Z,24.20
2019-05-18T07:05:54.311Z,24.13
2019-05-18T07:08:21.848Z,31.23
2019-05-18T07:10:49.243Z,34.70
2019-05-18T07:13:16.735Z,33.27
2019-05-18T07:15:44.444Z,30.57
2019-05-18T07:18:11.850Z,34.67
2019-05-18T07:20:39.289Z,34.77
2019-05-18T07:23:06.719Z,28.37
2019-05-18T07:25:34.221Z,36.70
2019-05-18T07:28:02.193Z,35.27
2019-05-18T07:30:29.875Z,31.60
2019-05-18T07:32:57.334Z,29.33
2019-05-18T07:35:24.783Z,31.20
2019-05-18T07:37:52.241Z,30.50
2019-05-18T07:40:19.803Z,32.17
2019-05-18T07:42:47.332Z,32.33
2019-05-18T07:45:15.199Z,27.37
2019-05-18T07:47:42.642Z,34.13
2019-05-18T07:50:10.204Z,34.73
2019-05-18T07:52:37.642Z,29.60
2019-05-18T07:55:05.269Z,30.87
2019-05-18T07:57:32.784Z,30.97
2019-05-18T08:00:00.193Z,33.37
2019-05-18T08:02:27.704Z,37.20
2019-05-18T08:04:55.104Z,34.70
2019-05-18T08:07:22.526Z,30.77
2019-05-18T08:09:50.159Z,34.20
2019-05-18T08:12:17.607Z,33.40
2019-05-18T08:14:45.009Z,33.73
2019-05-18T08:17:12.462Z,33.90
2019-05-18T08:19:39.925Z,31.77
2019-05-18T08:22:07.321Z,33.47
2019-05-18T08:24:34.820Z,35.50
2019-05-18T08:27:02.583Z,28.80
2019-05-18T08:29:30.769Z,36.70
2019-05-18T08:31:58.318Z,36.03
2019-05-18T08:34:25.829Z,37.30
2019-05-18T08:36:53.193Z,33.40
2019-05-18T08:39:20.698Z,35.00
2019-05-18T08:41:48.873Z,33.67
2019-05-18T08:44:16.675Z,32.80
2019-05-18T08:46:44.132Z,33.27
2019-05-18T08:49:11.980Z,32.57
2019-05-18T08:51:39.421Z,34.27
2019-05-18T08:54:06.892Z,37.50
2019-05-18T08:56:34.374Z,32.97
2019-05-18T08:59:01.837Z,34.03
2019-05-18T09:01:29.257Z,32.67
2019-05-18T09:03:56.752Z,30.83
2019-05-18T09:06:24.210Z,28.73
2019-05-18T09:08:51.648Z,28.13
2019-05-18T09:11:19.273Z,30.83
2019-05-18T09:13:46.729Z,34.33
2019-05-18T09:16:14.223Z,28.60
2019-05-18T09:18:41.606Z,26.77
2019-05-18T09:21:09.054Z,29.10
2019-05-18T09:23:36.547Z,25.00
2019-05-18T09:26:03.938Z,25.27
2019-05-18T09:28:31.423Z,23.20
2019-05-18T09:30:58.881Z,21.60
2019-05-18T09:33:26.285Z,18.10
2019-05-18T09:35:53.719Z,20.37
2019-05-18T09:38:21.992Z,17.70
2019-05-18T09:40:49.532Z,18.40
2019-05-18T09:43:16.974Z,17.17
2019-05-18T09:45:44.564Z,20.33
2019-05-18T09:48:11.929Z,20.23
2019-05-18T09:50:39.430Z,19.90
2019-05-18T09:53:06.866Z,21.43
2019-05-18T09:55:34.243Z,25.97
2019-05-18T09:58:01.681Z,27.17
2019-05-18T10:00:36.865Z,24.63
2019-05-18T10:02:58.750Z,22.97
2019-05-18T10:05:26.167Z,21.30
2019-05-18T10:07:53.623Z,19.93
2019-05-18T10:10:21.299Z,20.77
2019-05-18T10:12:48.786Z,21.83
2019-05-18T10:15:16.611Z,20.47
2019-05-18T10:17:44.029Z,19.00
2019-05-18T10:20:12.159Z,25.70
2019-05-18T10:22:53.518Z,17.40
2019-05-18T10:25:10.164Z,18.97
2019-05-18T10:27:37.635Z,17.37
2019-05-18T10:30:06.075Z,15.63
2019-05-18T10:32:33.517Z,15.53
2019-05-18T10:35:00.963Z,16.87
2019-05-18T10:37:28.399Z,16.13
2019-05-18T10:39:55.826Z,15.57
2019-05-18T10:42:23.268Z,18.03
2019-05-18T10:44:50.702Z,15.23
2019-05-18T10:47:18.067Z,15.93
2019-05-18T10:49:45.528Z,18.60
2019-05-18T10:52:12.968Z,15.33
2019-05-18T10:54:40.453Z,14.47
2019-05-18T10:57:07.878Z,14.83
2019-05-18T10:59:35.233Z,13.83
2019-05-18T11:02:03.230Z,15.43
2019-05-18T11:04:30.968Z,15.13
2019-05-18T11:06:58.557Z,15.03
2019-05-18T11:09:25.999Z,14.83
2019-05-18T11:11:53.465Z,16.43
2019-05-18T11:14:20.997Z,14.50
2019-05-18T11:16:48.461Z,15.97
2019-05-18T11:19:15.994Z,14.30
2019-05-18T11:21:43.418Z,14.50
2019-05-18T11:24:10.819Z,15.17
2019-05-18T11:26:38.368Z,14.40
2019-05-18T11:29:05.915Z,14.47
2019-05-18T11:31:33.439Z,16.57
2019-05-18T11:34:00.903Z,15.53
2019-05-18T11:36:28.336Z,14.83
2019-05-18T11:38:55.786Z,14.77
2019-05-18T11:41:23.224Z,15.37
2019-05-18T11:43:50.714Z,13.73
2019-05-18T11:46:18.097Z,17.37
2019-05-18T11:48:45.633Z,13.13
2019-05-18T11:51:13.079Z,15.00
2019-05-18T11:53:40.605Z,15.90
2019-05-18T11:56:08.062Z,14.03
2019-05-18T11:58:35.581Z,13.57
2019-05-18T12:01:03.151Z,14.03
2019-05-18T12:03:30.602Z,14.30
2019-05-18T12:05:58.099Z,13.63
2019-05-18T12:08:25.528Z,13.33
2019-05-18T12:10:56.095Z,15.07
2019-05-18T12:13:26.110Z,13.17
2019-05-18T12:15:53.692Z,13.33
2019-05-18T12:18:21.275Z,13.37
2019-05-18T12:20:48.743Z,14.73
2019-05-18T12:23:16.115Z,13.50
2019-05-18T12:25:43.902Z,18.73
2019-05-18T12:28:11.378Z,13.33
2019-05-18T12:30:39.161Z,14.13
2019-05-18T12:33:06.588Z,13.23
2019-05-18T12:35:34.078Z,14.70
2019-05-18T12:38:01.565Z,11.83
2019-05-18T12:40:29.240Z,14.20
2019-05-18T12:42:56.606Z,12.70
2019-05-18T12:45:24.548Z,12.73
2019-05-18T12:47:51.962Z,10.90
2019-05-18T12:50:21.524Z,11.17
2019-05-18T12:52:49.059Z,10.87
2019-05-18T12:55:17.210Z,8.23
2019-05-18T12:57:44.697Z,12.30
2019-05-18T13:00:14.375Z,9.03
2019-05-18T13:02:41.941Z,11.10
2019-05-18T13:05:09.989Z,9.53
2019-05-18T13:07:37.393Z,8.70
2019-05-18T13:10:06.028Z,9.00
2019-05-18T13:12:33.470Z,12.43
2019-05-18T13:15:00.912Z,8.23
2019-05-18T13:17:28.476Z,9.87
2019-05-18T13:19:55.916Z,7.20
2019-05-18T13:22:23.393Z,8.57
2019-05-18T13:24:52.249Z,8.03
2019-05-18T13:27:19.965Z,9.23
2019-05-18T13:29:47.439Z,7.50
2019-05-18T13:32:15.037Z,8.63
2019-05-18T13:34:42.461Z,7.43
2019-05-18T13:37:10.005Z,7.97
2019-05-18T13:39:37.468Z,7.50
2019-05-18T13:42:04.954Z,9.43
2019-05-18T13:44:32.495Z,9.03
2019-05-18T13:46:59.918Z,9.83
2019-05-18T13:49:27.320Z,7.37
2019-05-18T13:51:54.812Z,10.47
2019-05-18T13:54:22.277Z,6.87
2019-05-18T13:56:49.746Z,9.23
2019-05-18T13:59:17.182Z,6.37
2019-05-18T14:01:44.627Z,9.77
2019-05-18T14:04:12.093Z,6.97
2019-05-18T14:06:39.573Z,5.43
2019-05-18T14:09:07.020Z,5.83
2019-05-18T14:11:34.395Z,6.23
2019-05-18T14:14:01.974Z,5.83
2019-05-18T14:16:29.522Z,4.40
2019-05-18T14:18:57.006Z,4.90
2019-05-18T14:21:24.642Z,8.60
2019-05-18T14:23:52.098Z,4.93
2019-05-18T14:26:19.534Z,3.83
2019-05-18T14:28:46.988Z,3.33
2019-05-18T14:31:14.427Z,5.40
2019-05-18T14:33:41.903Z,4.50
2019-05-18T14:36:09.382Z,3.97
2019-05-18T14:38:36.866Z,9.90
2019-05-18T14:41:04.425Z,7.43
2019-05-18T14:43:31.805Z,5.70
2019-05-18T14:45:59.260Z,6.53
2019-05-18T14:48:26.718Z,6.23
2019-05-18T14:50:54.146Z,3.43
2019-05-18T14:53:21.529Z,3.40
2019-05-18T14:55:49.042Z,3.20
2019-05-18T14:58:16.466Z,3.60
2019-05-18T15:00:44.098Z,5.70
2019-05-18T15:03:11.537Z,2.97
2019-05-18T15:05:39.096Z,4.03
2019-05-18T15:08:06.533Z,4.17
2019-05-18T15:10:34.026Z,4.97
2019-05-18T15:13:01.465Z,3.17
2019-05-18T15:15:28.907Z,3.10
2019-05-18T15:17:56.251Z,3.50
2019-05-18T15:20:23.908Z,8.87
2019-05-18T15:22:51.447Z,3.37
2019-05-18T15:25:19.069Z,3.03
2019-05-18T15:27:46.471Z,3.47
2019-05-18T15:30:14.086Z,6.80
2019-05-18T15:32:41.522Z,4.57
2019-05-18T15:35:09.383Z,3.47
2019-05-18T15:37:36.855Z,3.80
2019-05-18T15:40:04.589Z,4.20
2019-05-18T15:42:32.031Z,4.73
2019-05-18T15:44:59.464Z,3.27
2019-05-18T15:47:26.914Z,3.20
2019-05-18T15:49:54.355Z,2.90
2019-05-18T15:52:21.776Z,3.43
2019-05-18T15:54:49.219Z,3.10
2019-05-18T15:57:16.783Z,3.23
2019-05-18T15:59:44.230Z,3.60
2019-05-18T16:02:11.702Z,2.87
2019-05-18T16:04:39.188Z,3.30
2019-05-18T16:07:06.612Z,4.03
2019-05-18T16:09:34.090Z,2.90
2019-05-18T16:12:01.548Z,4.57
2019-05-18T16:14:29.022Z,2.80
2019-05-18T16:16:56.585Z,2.70
2019-05-18T16:19:24.056Z,2.70
2019-05-18T16:21:51.554Z,3.00
2019-05-18T16:24:19.072Z,3.97
2019-05-18T16:26:46.509Z,8.87
2019-05-18T16:29:14.070Z,3.90
2019-05-18T16:31:41.660Z,4.63
2019-05-18T16:34:09.168Z,3.87
2019-05-18T16:36:36.640Z,4.20
2019-05-18T16:39:06.136Z,6.33
2019-05-18T16:41:33.676Z,3.60
2019-05-18T16:44:01.562Z,7.37
2019-05-18T16:46:29.007Z,5.63
2019-05-18T16:48:56.747Z,4.90
2019-05-18T16:51:24.196Z,5.07
2019-05-18T16:53:51.576Z,5.00
2019-05-18T16:56:19.113Z,6.07
2019-05-18T16:58:46.570Z,5.10
2019-05-18T17:01:13.947Z,6.70
2019-05-18T17:03:41.420Z,7.47
2019-05-18T17:06:08.831Z,5.10
2019-05-18T17:08:36.217Z,4.83
2019-05-18T17:11:03.637Z,5.57
2019-05-18T17:13:31.078Z,6.67
2019-05-18T17:15:58.523Z,7.13
2019-05-18T17:18:25.881Z,7.10
2019-05-18T17:20:53.361Z,7.07
2019-05-18T17:23:20.940Z,6.00
2019-05-18T17:25:48.472Z,7.93
2019-05-18T17:28:15.843Z,5.47
2019-05-18T17:30:43.310Z,8.27
2019-05-18T17:33:10.757Z,8.60
2019-05-18T17:35:38.161Z,7.47
2019-05-18T17:38:05.588Z,7.33
2019-05-18T17:40:33.035Z,7.97
2019-05-18T17:43:00.447Z,9.03
2019-05-18T17:45:27.919Z,8.87
2019-05-18T17:47:55.414Z,8.17
2019-05-18T17:50:22.852Z,11.70
2019-05-18T17:52:50.231Z,8.43
2019-05-18T17:55:17.847Z,7.47
2019-05-18T17:57:45.445Z,12.53
2019-05-18T18:00:13.608Z,7.90
2019-05-18T18:02:40.970Z,7.67
2019-05-18T18:05:09.104Z,5.30
2019-05-18T18:07:36.743Z,5.77
2019-05-18T18:10:05.293Z,6.90
2019-05-18T18:12:32.743Z,6.20
2019-05-18T18:15:00.169Z,6.17
2019-05-18T18:17:27.557Z,5.00
2019-05-18T18:19:54.989Z,5.67
2019-05-18T18:22:23.897Z,5.67
2019-05-18T18:24:51.542Z,8.37
2019-05-18T18:27:25.102Z,5.73
2019-05-18T18:29:48.286Z,5.73
2019-05-18T18:32:16.068Z,13.03
2019-05-18T18:34:43.597Z,7.27
2019-05-18T18:37:11.039Z,5.97
2019-05-18T18:39:38.508Z,7.73
2019-05-18T18:42:06.072Z,5.10
2019-05-18T18:44:33.504Z,4.40
2019-05-18T18:47:00.918Z,4.27
2019-05-18T18:49:28.299Z,6.20
2019-05-18T18:51:55.770Z,4.23
2019-05-18T18:54:23.187Z,6.67
2019-05-18T18:56:50.613Z,5.33
2019-05-18T18:59:18.024Z,4.50
2019-05-18T19:01:45.454Z,4.60
2019-05-18T19:04:12.852Z,7.10
2019-05-18T19:06:40.329Z,7.77
2019-05-18T19:09:07.945Z,5.10
2019-05-18T19:11:35.431Z,6.67
2019-05-18T19:14:03.068Z,7.73
2019-05-18T19:16:30.483Z,8.53
2019-05-18T19:18:57.985Z,6.57
2019-05-18T19:21:25.393Z,8.17
2019-05-18T19:23:52.858Z,7.47
2019-05-18T19:26:20.564Z,9.67
2019-05-18T19:28:47.979Z,9.27
2019-05-18T19:31:16.024Z,8.50
2019-05-18T19:33:44.002Z,12.10
2019-05-18T19:36:11.457Z,11.73
2019-05-18T19:38:38.986Z,8.77
2019-05-18T19:41:06.378Z,10.83
2019-05-18T19:43:33.803Z,12.40
2019-05-18T19:46:01.259Z,8.77
2019-05-18T19:48:28.670Z,8.50
2019-05-18T19:50:56.228Z,8.73
2019-05-18T19:53:23.713Z,8.57
2019-05-18T19:55:51.104Z,11.50
2019-05-18T19:58:18.592Z,7.67
2019-05-18T20:00:46.190Z,9.57
2019-05-18T20:03:13.692Z,11.20
2019-05-18T20:05:41.174Z,8.60
2019-05-18T20:08:08.566Z,9.33
2019-05-18T20:10:36.031Z,9.17
2019-05-18T20:13:03.486Z,13.57
2019-05-18T20:15:30.945Z,11.10
2019-05-18T20:17:58.373Z,17.30
2019-05-18T20:20:27.840Z,10.60
2019-05-18T20:22:55.294Z,9.77
2019-05-18T20:25:22.877Z,10.37
2019-05-18T20:27:50.348Z,9.23
2019-05-18T20:30:18.637Z,9.07
2019-05-18T20:32:46.154Z,11.80
2019-05-18T20:35:13.895Z,10.03
2019-05-18T20:37:41.476Z,12.60
2019-05-18T20:40:09.680Z,11.97
2019-05-18T20:42:37.777Z,10.83
2019-05-18T20:45:05.864Z,11.97
2019-05-18T20:47:33.451Z,11.73
2019-05-18T20:50:00.973Z,10.97
2019-05-18T20:52:28.313Z,8.60
2019-05-18T20:54:55.802Z,11.43
2019-05-18T20:57:23.219Z,9.20
2019-05-18T20:59:50.683Z,10.77
2019-05-18T21:02:18.227Z,9.57
2019-05-18T21:04:45.587Z,13.33
2019-05-18T21:07:13.067Z,9.93
2019-05-18T21:09:40.482Z,13.70
2019-05-18T21:12:07.851Z,11.17
2019-05-18T21:14:35.256Z,14.83
2019-05-18T21:17:02.697Z,11.57
2019-05-18T21:19:30.074Z,10.83
2019-05-18T21:21:57.495Z,13.47
2019-05-18T21:24:24.959Z,11.13
2019-05-18T21:26:52.313Z,14.57
2019-05-18T21:29:19.736Z,14.73
2019-05-18T21:31:47.238Z,12.00
2019-05-18T21:34:14.868Z,10.90
2019-05-18T21:36:42.269Z,12.40
2019-05-18T21:39:09.691Z,13.30
2019-05-18T21:41:37.117Z,12.97
2019-05-18T21:44:04.572Z,11.43
2019-05-18T21:46:31.998Z,12.37
2019-05-18T21:48:59.429Z,10.80
2019-05-18T21:51:26.816Z,10.93
2019-05-18T21:53:54.239Z,12.23
2019-05-18T21:56:21.695Z,10.77
2019-05-18T21:58:49.052Z,14.67
2019-05-18T22:01:16.588Z,11.67
2019-05-18T22:03:48.059Z,9.60
2019-05-18T22:06:13.267Z,10.63
2019-05-18T22:08:40.696Z,14.90
2019-05-18T22:11:08.139Z,12.93
2019-05-18T22:13:35.597Z,10.37
2019-05-18T22:16:02.975Z,10.37
2019-05-18T22:18:30.406Z,11.57
2019-05-18T22:20:57.829Z,9.80
2019-05-18T22:23:25.256Z,10.63
2019-05-18T22:25:52.707Z,9.90
2019-05-18T22:28:20.176Z,9.50
2019-05-18T22:30:47.654Z,10.43
2019-05-18T22:33:15.086Z,10.43
2019-05-18T22:35:42.783Z,11.10
2019-05-18T22:38:10.255Z,9.50
2019-05-18T22:40:37.605Z,11.87
2019-05-18T22:43:05.072Z,8.80
2019-05-18T22:45:32.530Z,10.20
2019-05-18T22:47:59.922Z,9.07
2019-05-18T22:50:27.656Z,10.07
2019-05-18T22:52:55.180Z,10.47
2019-05-18T22:55:22.597Z,9.57
2019-05-18T22:57:50.010Z,9.30
2019-05-18T23:00:17.614Z,11.83
2019-05-18T23:02:45.059Z,13.83
2019-05-18T23:05:12.573Z,11.87
2019-05-18T23:07:39.982Z,11.57
2019-05-18T23:10:07.702Z,13.10
2019-05-18T23:12:35.148Z,13.17
2019-05-18T23:15:02.579Z,10.43
2019-05-18T23:17:29.988Z,11.77
2019-05-18T23:19:57.419Z,10.90
2019-05-18T23:22:24.852Z,9.90
2019-05-18T23:24:52.304Z,9.63
2019-05-18T23:27:19.684Z,12.37
2019-05-18T23:29:47.134Z,11.77
2019-05-18T23:32:14.602Z,10.47
2019-05-18T23:34:42.196Z,16.40
2019-05-18T23:37:09.716Z,13.73
2019-05-18T23:39:37.266Z,9.93
2019-05-18T23:42:04.778Z,10.57
2019-05-18T23:44:32.236Z,11.43
2019-05-18T23:46:59.606Z,10.97
2019-05-18T23:49:27.018Z,9.30
2019-05-18T23:51:54.552Z,12.53
2019-05-18T23:54:21.924Z,11.93
2019-05-18T23:56:49.354Z,13.73
2019-05-18T23:59:16.805Z,12.17
